sensor_id;sensor_type;location;lat;lon;timestamp;temperature;humidity
65324;SHT31;51937;48.364;11.378;2022-09-12T00:01:23;14.79;60.40
65324;SHT31;51937;48.364;11.378;2022-09-12T00:03:54;14.79;60.40
65324;SHT31;51937;48.364;11.378;2022-09-12T00:06:23;14.77;60.45
65324;SHT31;51937;48.364;11.378;2022-09-12T00:09:01;14.75;60.56
65324;SHT31;51937;48.364;11.378;2022-09-12T00:11:28;14.77;60.47
65324;SHT31;51937;48.364;11.378;2022-09-12T00:13:58;14.76;60.54
65324;SHT31;51937;48.364;11.378;2022-09-12T00:16:27;14.73;60.53
65324;SHT31;51937;48.364;11.378;2022-09-12T00:18:53;14.73;60.53
65324;SHT31;51937;48.364;11.378;2022-09-12T00:21:19;14.75;60.52
65324;SHT31;51937;48.364;11.378;2022-09-12T00:23:45;14.73;60.55
65324;SHT31;51937;48.364;11.378;2022-09-12T00:26:12;14.76;60.52
65324;SHT31;51937;48.364;11.378;2022-09-12T00:28:39;14.72;60.51
65324;SHT31;51937;48.364;11.378;2022-09-12T00:31:17;14.69;60.58
65324;SHT31;51937;48.364;11.378;2022-09-12T00:33:42;14.66;60.46
65324;SHT31;51937;48.364;11.378;2022-09-12T00:36:12;14.69;60.48
65324;SHT31;51937;48.364;11.378;2022-09-12T00:38:39;14.66;60.42
65324;SHT31;51937;48.364;11.378;2022-09-12T00:41:10;14.63;60.45
65324;SHT31;51937;48.364;11.378;2022-09-12T00:43:38;14.62;60.40
65324;SHT31;51937;48.364;11.378;2022-09-12T00:49:02;14.55;60.50
65324;SHT31;51937;48.364;11.378;2022-09-12T00:51:32;14.52;60.47
65324;SHT31;51937;48.364;11.378;2022-09-12T00:53:59;14.51;60.51
65324;SHT31;51937;48.364;11.378;2022-09-12T00:56:27;14.51;60.51
65324;SHT31;51937;48.364;11.378;2022-09-12T00:58:58;14.43;60.54
65324;SHT31;51937;48.364;11.378;2022-09-12T01:01:24;14.43;60.52
65324;SHT31;51937;48.364;11.378;2022-09-12T01:03:49;14.42;60.58
65324;SHT31;51937;48.364;11.378;2022-09-12T01:06:18;14.41;60.61
65324;SHT31;51937;48.364;11.378;2022-09-12T01:08:46;14.41;60.62
65324;SHT31;51937;48.364;11.378;2022-09-12T01:11:13;14.39;60.64
65324;SHT31;51937;48.364;11.378;2022-09-12T01:13:42;14.35;60.70
65324;SHT31;51937;48.364;11.378;2022-09-12T01:16:08;14.34;60.71
65324;SHT31;51937;48.364;11.378;2022-09-12T01:30:42;14.06;60.85
65324;SHT31;51937;48.364;11.378;2022-09-12T01:46:29;13.94;60.76
65324;SHT31;51937;48.364;11.378;2022-09-12T01:49:04;13.87;60.80
65324;SHT31;51937;48.364;11.378;2022-09-12T01:51:36;13.83;60.79
65324;SHT31;51937;48.364;11.378;2022-09-12T01:54:10;13.81;60.87
65324;SHT31;51937;48.364;11.378;2022-09-12T01:56:38;13.79;60.80
65324;SHT31;51937;48.364;11.378;2022-09-12T01:59:19;13.74;60.83
65324;SHT31;51937;48.364;11.378;2022-09-12T02:01:56;13.70;60.89
65324;SHT31;51937;48.364;11.378;2022-09-12T02:04:27;13.66;60.86
65324;SHT31;51937;48.364;11.378;2022-09-12T02:06:58;13.65;60.84
65324;SHT31;51937;48.364;11.378;2022-09-12T02:09:25;13.63;60.85
65324;SHT31;51937;48.364;11.378;2022-09-12T02:11:56;13.58;60.90
65324;SHT31;51937;48.364;11.378;2022-09-12T02:14:27;13.55;60.94
65324;SHT31;51937;48.364;11.378;2022-09-12T02:17:05;13.51;60.94
65324;SHT31;51937;48.364;11.378;2022-09-12T02:19:45;13.48;60.94
65324;SHT31;51937;48.364;11.378;2022-09-12T02:22:14;13.45;60.99
65324;SHT31;51937;48.364;11.378;2022-09-12T02:24:44;13.41;61.00
65324;SHT31;51937;48.364;11.378;2022-09-12T02:27:15;13.39;60.92
65324;SHT31;51937;48.364;11.378;2022-09-12T02:29:43;13.38;60.91
65324;SHT31;51937;48.364;11.378;2022-09-12T02:32:29;13.34;61.00
65324;SHT31;51937;48.364;11.378;2022-09-12T02:35:45;13.24;61.04
65324;SHT31;51937;48.364;11.378;2022-09-12T02:40:46;13.22;60.74
65324;SHT31;51937;48.364;11.378;2022-09-12T02:43:12;13.21;60.72
65324;SHT31;51937;48.364;11.378;2022-09-12T02:45:37;13.19;60.78
65324;SHT31;51937;48.364;11.378;2022-09-12T02:48:19;13.14;60.87
65324;SHT31;51937;48.364;11.378;2022-09-12T02:50:46;13.15;60.83
65324;SHT31;51937;48.364;11.378;2022-09-12T02:53:11;13.14;60.89
65324;SHT31;51937;48.364;11.378;2022-09-12T02:55:39;13.12;60.90
65324;SHT31;51937;48.364;11.378;2022-09-12T02:58:10;13.15;60.91
65324;SHT31;51937;48.364;11.378;2022-09-12T03:00:53;13.14;60.97
65324;SHT31;51937;48.364;11.378;2022-09-12T03:06:34;13.12;60.87
65324;SHT31;51937;48.364;11.378;2022-09-12T03:09:30;13.06;61.00
65324;SHT31;51937;48.364;11.378;2022-09-12T03:12:19;13.07;60.91
65324;SHT31;51937;48.364;11.378;2022-09-12T03:14:57;13.04;60.96
65324;SHT31;51937;48.364;11.378;2022-09-12T03:17:38;13.00;60.94
65324;SHT31;51937;48.364;11.378;2022-09-12T03:20:20;13.00;60.95
65324;SHT31;51937;48.364;11.378;2022-09-12T03:22:55;12.98;60.95
65324;SHT31;51937;48.364;11.378;2022-09-12T03:25:45;12.97;60.93
65324;SHT31;51937;48.364;11.378;2022-09-12T03:28:17;12.94;60.92
65324;SHT31;51937;48.364;11.378;2022-09-12T03:30:46;12.94;60.87
65324;SHT31;51937;48.364;11.378;2022-09-12T03:33:15;12.97;60.87
65324;SHT31;51937;48.364;11.378;2022-09-12T03:35:40;12.98;60.85
65324;SHT31;51937;48.364;11.378;2022-09-12T03:38:06;12.98;60.85
65324;SHT31;51937;48.364;11.378;2022-09-12T03:40:33;12.98;60.90
65324;SHT31;51937;48.364;11.378;2022-09-12T03:42:58;13.01;60.89
65324;SHT31;51937;48.364;11.378;2022-09-12T03:45:23;13.01;60.95
65324;SHT31;51937;48.364;11.378;2022-09-12T03:47:49;13.00;60.99
65324;SHT31;51937;48.364;11.378;2022-09-12T03:50:14;12.98;60.99
65324;SHT31;51937;48.364;11.378;2022-09-12T03:52:41;12.98;61.05
65324;SHT31;51937;48.364;11.378;2022-09-12T03:55:06;12.98;61.05
65324;SHT31;51937;48.364;11.378;2022-09-12T03:57:31;12.97;61.11
65324;SHT31;51937;48.364;11.378;2022-09-12T03:59:57;12.97;61.11
65324;SHT31;51937;48.364;11.378;2022-09-12T04:02:22;12.96;61.18
65324;SHT31;51937;48.364;11.378;2022-09-12T04:04:47;12.94;61.12
65324;SHT31;51937;48.364;11.378;2022-09-12T04:07:14;12.91;61.11
65324;SHT31;51937;48.364;11.378;2022-09-12T04:09:40;12.93;61.08
65324;SHT31;51937;48.364;11.378;2022-09-12T04:12:07;12.94;61.09
65324;SHT31;51937;48.364;11.378;2022-09-12T04:14:33;12.93;61.01
65324;SHT31;51937;48.364;11.378;2022-09-12T04:16:59;12.94;61.03
65324;SHT31;51937;48.364;11.378;2022-09-12T04:19:25;12.90;61.03
65324;SHT31;51937;48.364;11.378;2022-09-12T04:21:51;12.93;61.00
65324;SHT31;51937;48.364;11.378;2022-09-12T04:24:17;12.90;61.01
65324;SHT31;51937;48.364;11.378;2022-09-12T04:26:43;12.87;61.05
65324;SHT31;51937;48.364;11.378;2022-09-12T04:29:10;12.83;61.11
65324;SHT31;51937;48.364;11.378;2022-09-12T04:31:35;12.83;61.13
65324;SHT31;51937;48.364;11.378;2022-09-12T04:34:01;12.81;61.16
65324;SHT31;51937;48.364;11.378;2022-09-12T04:36:28;12.80;61.14
65324;SHT31;51937;48.364;11.378;2022-09-12T04:38:54;12.79;61.10
65324;SHT31;51937;48.364;11.378;2022-09-12T04:41:24;12.79;61.10
65324;SHT31;51937;48.364;11.378;2022-09-12T04:43:52;12.79;61.11
65324;SHT31;51937;48.364;11.378;2022-09-12T04:46:18;12.77;61.09
65324;SHT31;51937;48.364;11.378;2022-09-12T04:48:47;12.75;61.09
65324;SHT31;51937;48.364;11.378;2022-09-12T04:51:15;12.76;61.11
65324;SHT31;51937;48.364;11.378;2022-09-12T04:53:47;12.72;61.19
65324;SHT31;51937;48.364;11.378;2022-09-12T04:56:13;12.70;61.16
65324;SHT31;51937;48.364;11.378;2022-09-12T04:58:40;12.69;61.14
65324;SHT31;51937;48.364;11.378;2022-09-12T05:01:14;12.64;61.19
65324;SHT31;51937;48.364;11.378;2022-09-12T05:03:41;12.64;61.18
65324;SHT31;51937;48.364;11.378;2022-09-12T05:06:13;12.63;61.22
65324;SHT31;51937;48.364;11.378;2022-09-12T05:08:38;12.63;61.23
65324;SHT31;51937;48.364;11.378;2022-09-12T05:11:06;12.62;61.20
65324;SHT31;51937;48.364;11.378;2022-09-12T05:13:32;12.66;61.16
65324;SHT31;51937;48.364;11.378;2022-09-12T05:15:59;12.67;61.15
65324;SHT31;51937;48.364;11.378;2022-09-12T05:18:27;12.72;61.12
65324;SHT31;51937;48.364;11.378;2022-09-12T05:20:53;12.73;61.08
65324;SHT31;51937;48.364;11.378;2022-09-12T05:23:19;12.80;61.08
65324;SHT31;51937;48.364;11.378;2022-09-12T05:25:50;12.81;61.09
65324;SHT31;51937;48.364;11.378;2022-09-12T05:28:17;12.87;61.00
65324;SHT31;51937;48.364;11.378;2022-09-12T05:30:43;12.90;61.01
65324;SHT31;51937;48.364;11.378;2022-09-12T05:33:08;12.97;60.96
65324;SHT31;51937;48.364;11.378;2022-09-12T05:35:33;13.01;60.96
65324;SHT31;51937;48.364;11.378;2022-09-12T05:37:58;13.10;60.94
65324;SHT31;51937;48.364;11.378;2022-09-12T05:40:24;13.14;60.89
65324;SHT31;51937;48.364;11.378;2022-09-12T05:42:49;13.19;60.85
65324;SHT31;51937;48.364;11.378;2022-09-12T05:45:14;13.25;60.85
65324;SHT31;51937;48.364;11.378;2022-09-12T05:47:41;13.32;60.89
65324;SHT31;51937;48.364;11.378;2022-09-12T05:50:09;13.35;60.91
65324;SHT31;51937;48.364;11.378;2022-09-12T05:52:38;13.42;60.93
65324;SHT31;51937;48.364;11.378;2022-09-12T05:55:10;13.43;60.93
65324;SHT31;51937;48.364;11.378;2022-09-12T05:57:35;13.52;60.78
65324;SHT31;51937;48.364;11.378;2022-09-12T06:00:02;13.59;60.80
65324;SHT31;51937;48.364;11.378;2022-09-12T06:02:28;13.62;60.85
65324;SHT31;51937;48.364;11.378;2022-09-12T06:04:53;13.66;60.98
65324;SHT31;51937;48.364;11.378;2022-09-12T06:07:18;13.70;60.99
65324;SHT31;51937;48.364;11.378;2022-09-12T06:09:44;13.77;61.03
65324;SHT31;51937;48.364;11.378;2022-09-12T06:12:09;13.84;60.99
65324;SHT31;51937;48.364;11.378;2022-09-12T06:14:34;13.89;60.97
65324;SHT31;51937;48.364;11.378;2022-09-12T06:17:01;13.97;60.98
65324;SHT31;51937;48.364;11.378;2022-09-12T06:19:26;14.06;60.91
65324;SHT31;51937;48.364;11.378;2022-09-12T06:21:52;14.11;60.92
65324;SHT31;51937;48.364;11.378;2022-09-12T06:24:19;14.18;60.90
65324;SHT31;51937;48.364;11.378;2022-09-12T06:26:46;14.24;60.97
65324;SHT31;51937;48.364;11.378;2022-09-12T06:29:12;14.32;60.99
65324;SHT31;51937;48.364;11.378;2022-09-12T06:31:38;14.41;61.01
65324;SHT31;51937;48.364;11.378;2022-09-12T06:34:07;14.49;60.95
65324;SHT31;51937;48.364;11.378;2022-09-12T06:36:36;14.60;60.94
65324;SHT31;51937;48.364;11.378;2022-09-12T06:39:05;14.70;60.93
65324;SHT31;51937;48.364;11.378;2022-09-12T06:41:32;14.79;60.95
65324;SHT31;51937;48.364;11.378;2022-09-12T06:43:58;14.91;60.86
65324;SHT31;51937;48.364;11.378;2022-09-12T06:46:24;15.01;60.84
65324;SHT31;51937;48.364;11.378;2022-09-12T06:48:50;15.06;60.80
65324;SHT31;51937;48.364;11.378;2022-09-12T06:51:17;15.10;60.83
65324;SHT31;51937;48.364;11.378;2022-09-12T06:53:44;15.11;60.95
65324;SHT31;51937;48.364;11.378;2022-09-12T06:56:15;15.11;61.08
65324;SHT31;51937;48.364;11.378;2022-09-12T06:58:42;15.14;61.12
65324;SHT31;51937;48.364;11.378;2022-09-12T07:01:13;15.18;61.20
65324;SHT31;51937;48.364;11.378;2022-09-12T07:03:39;15.25;61.18
65324;SHT31;51937;48.364;11.378;2022-09-12T07:06:07;15.34;61.19
65324;SHT31;51937;48.364;11.378;2022-09-12T07:08:34;15.46;61.18
65324;SHT31;51937;48.364;11.378;2022-09-12T07:11:22;15.53;61.27
65324;SHT31;51937;48.364;11.378;2022-09-12T07:13:50;15.59;61.29
65324;SHT31;51937;48.364;11.378;2022-09-12T07:16:16;15.66;61.39
65324;SHT31;51937;48.364;11.378;2022-09-12T07:18:42;15.67;61.49
65324;SHT31;51937;48.364;11.378;2022-09-12T07:21:12;15.66;61.61
65324;SHT31;51937;48.364;11.378;2022-09-12T07:23:39;15.69;61.68
65324;SHT31;51937;48.364;11.378;2022-09-12T07:26:06;15.72;61.79
65324;SHT31;51937;48.364;11.378;2022-09-12T07:28:33;15.74;61.91
65324;SHT31;51937;48.364;11.378;2022-09-12T07:33:35;15.80;61.97
65324;SHT31;51937;48.364;11.378;2022-09-12T07:36:04;15.83;62.08
65324;SHT31;51937;48.364;11.378;2022-09-12T07:38:29;15.89;62.11
65324;SHT31;51937;48.364;11.378;2022-09-12T07:40:55;15.96;62.18
65324;SHT31;51937;48.364;11.378;2022-09-12T07:43:21;16.03;62.21
65324;SHT31;51937;48.364;11.378;2022-09-12T07:45:46;16.07;62.24
65324;SHT31;51937;48.364;11.378;2022-09-12T07:48:12;16.13;62.28
65324;SHT31;51937;48.364;11.378;2022-09-12T07:50:38;16.21;62.34
65324;SHT31;51937;48.364;11.378;2022-09-12T07:53:03;16.26;62.36
65324;SHT31;51937;48.364;11.378;2022-09-12T07:55:29;16.32;62.37
65324;SHT31;51937;48.364;11.378;2022-09-12T07:57:56;16.41;62.40
65324;SHT31;51937;48.364;11.378;2022-09-12T08:00:21;16.49;62.41
65324;SHT31;51937;48.364;11.378;2022-09-12T08:02:50;16.55;62.45
65324;SHT31;51937;48.364;11.378;2022-09-12T08:05:17;16.62;62.43
65324;SHT31;51937;48.364;11.378;2022-09-12T08:07:43;16.70;62.50
65324;SHT31;51937;48.364;11.378;2022-09-12T08:10:09;16.77;62.50
65324;SHT31;51937;48.364;11.378;2022-09-12T08:12:34;16.87;62.52
65324;SHT31;51937;48.364;11.378;2022-09-12T08:15:00;16.94;62.46
65324;SHT31;51937;48.364;11.378;2022-09-12T08:17:26;17.03;62.49
65324;SHT31;51937;48.364;11.378;2022-09-12T08:19:52;17.10;62.47
65324;SHT31;51937;48.364;11.378;2022-09-12T08:22:19;17.20;62.43
65324;SHT31;51937;48.364;11.378;2022-09-12T08:24:46;17.28;62.39
65324;SHT31;51937;48.364;11.378;2022-09-12T08:27:12;17.38;62.38
65324;SHT31;51937;48.364;11.378;2022-09-12T08:29:39;17.46;62.33
65324;SHT31;51937;48.364;11.378;2022-09-12T08:32:04;17.56;62.33
65324;SHT31;51937;48.364;11.378;2022-09-12T08:34:29;17.66;62.33
65324;SHT31;51937;48.364;11.378;2022-09-12T08:36:55;17.76;62.33
65324;SHT31;51937;48.364;11.378;2022-09-12T08:39:20;17.86;62.28
65324;SHT31;51937;48.364;11.378;2022-09-12T08:41:48;17.97;62.24
65324;SHT31;51937;48.364;11.378;2022-09-12T08:47:40;18.10;62.19
65324;SHT31;51937;48.364;11.378;2022-09-12T08:52:49;18.31;62.16
65324;SHT31;51937;48.364;11.378;2022-09-12T08:55:29;18.44;62.16
65324;SHT31;51937;48.364;11.378;2022-09-12T08:57:59;18.58;62.11
65324;SHT31;51937;48.364;11.378;2022-09-12T09:00:31;18.68;62.04
65324;SHT31;51937;48.364;11.378;2022-09-12T09:05:45;18.87;62.08
65324;SHT31;51937;48.364;11.378;2022-09-12T09:08:24;19.00;61.91
65324;SHT31;51937;48.364;11.378;2022-09-12T09:10:58;19.14;61.88
65324;SHT31;51937;48.364;11.378;2022-09-12T09:16:48;19.39;61.79
65324;SHT31;51937;48.364;11.378;2022-09-12T09:21:58;19.61;61.72
65324;SHT31;51937;48.364;11.378;2022-09-12T09:24:36;19.73;61.62
65324;SHT31;51937;48.364;11.378;2022-09-12T09:27:10;19.82;61.55
65324;SHT31;51937;48.364;11.378;2022-09-12T09:29:40;19.93;61.36
65324;SHT31;51937;48.364;11.378;2022-09-12T09:32:14;20.03;61.18
65324;SHT31;51937;48.364;11.378;2022-09-12T09:34:42;20.14;61.03
65324;SHT31;51937;48.364;11.378;2022-09-12T09:37:17;20.21;60.88
65324;SHT31;51937;48.364;11.378;2022-09-12T09:40:14;20.31;60.83
65324;SHT31;51937;48.364;11.378;2022-09-12T09:45:23;20.58;60.50
65324;SHT31;51937;48.364;11.378;2022-09-12T09:50:39;20.82;60.37
65324;SHT31;51937;48.364;11.378;2022-09-12T09:53:08;20.90;60.29
65324;SHT31;51937;48.364;11.378;2022-09-12T09:55:40;21.02;60.09
65324;SHT31;51937;48.364;11.378;2022-09-12T09:58:06;21.16;60.01
65324;SHT31;51937;48.364;11.378;2022-09-12T10:00:36;21.23;59.87
65324;SHT31;51937;48.364;11.378;2022-09-12T10:03:23;21.30;59.61
65324;SHT31;51937;48.364;11.378;2022-09-12T10:05:56;21.40;59.56
65324;SHT31;51937;48.364;11.378;2022-09-12T10:08:32;21.51;59.38
65324;SHT31;51937;48.364;11.378;2022-09-12T10:11:25;21.62;59.19
65324;SHT31;51937;48.364;11.378;2022-09-12T10:13:56;21.72;58.93
65324;SHT31;51937;48.364;11.378;2022-09-12T10:16:33;21.85;58.74
65324;SHT31;51937;48.364;11.378;2022-09-12T10:19:19;21.92;58.69
65324;SHT31;51937;48.364;11.378;2022-09-12T10:21:50;22.02;58.40
65324;SHT31;51937;48.364;11.378;2022-09-12T10:24:38;22.16;58.38
65324;SHT31;51937;48.364;11.378;2022-09-12T10:27:15;22.27;58.16
65324;SHT31;51937;48.364;11.378;2022-09-12T10:32:41;22.45;57.72
65324;SHT31;51937;48.364;11.378;2022-09-12T10:35:27;22.55;57.65
65324;SHT31;51937;48.364;11.378;2022-09-12T10:38:45;22.67;57.36
65324;SHT31;51937;48.364;11.378;2022-09-12T10:40:58;22.73;57.23
65324;SHT31;51937;48.364;11.378;2022-09-12T10:43:40;22.85;56.78
65324;SHT31;51937;48.364;11.378;2022-09-12T10:48:49;22.95;56.32
65324;SHT31;51937;48.364;11.378;2022-09-12T10:51:43;23.02;56.32
65324;SHT31;51937;48.364;11.378;2022-09-12T10:54:15;23.12;55.91
65324;SHT31;51937;48.364;11.378;2022-09-12T11:03:19;23.41;55.67
65324;SHT31;51937;48.364;11.378;2022-09-12T11:06:02;23.54;55.51
65324;SHT31;51937;48.364;11.378;2022-09-12T11:09:12;23.67;55.32
65324;SHT31;51937;48.364;11.378;2022-09-12T11:11:57;23.79;54.72
65324;SHT31;51937;48.364;11.378;2022-09-12T11:17:18;23.98;54.65
65324;SHT31;51937;48.364;11.378;2022-09-12T11:20:23;24.02;54.62
65324;SHT31;51937;48.364;11.378;2022-09-12T11:38:27;24.78;53.53
65324;SHT31;51937;48.364;11.378;2022-09-12T11:41:30;24.88;53.46
65324;SHT31;51937;48.364;11.378;2022-09-12T11:46:50;25.12;52.57
65324;SHT31;51937;48.364;11.378;2022-09-12T11:49:24;25.16;52.54
65324;SHT31;51937;48.364;11.378;2022-09-12T11:51:56;25.31;52.34
65324;SHT31;51937;48.364;11.378;2022-09-12T11:54:32;25.44;52.15
65324;SHT31;51937;48.364;11.378;2022-09-12T11:57:10;25.57;51.64
65324;SHT31;51937;48.364;11.378;2022-09-12T12:05:23;25.85;51.00
65324;SHT31;51937;48.364;11.378;2022-09-12T12:07:56;25.99;50.74
65324;SHT31;51937;48.364;11.378;2022-09-12T12:10:41;26.12;50.69
65324;SHT31;51937;48.364;11.378;2022-09-12T12:15:44;26.37;49.95
65324;SHT31;51937;48.364;11.378;2022-09-12T12:18:17;26.47;49.71
65324;SHT31;51937;48.364;11.378;2022-09-12T12:20:43;26.61;49.65
65324;SHT31;51937;48.364;11.378;2022-09-12T12:23:28;26.65;49.44
65324;SHT31;51937;48.364;11.378;2022-09-12T12:25:57;26.75;49.31
65324;SHT31;51937;48.364;11.378;2022-09-12T12:31:09;27.03;49.24
65324;SHT31;51937;48.364;11.378;2022-09-12T12:36:10;27.33;48.30
65324;SHT31;51937;48.364;11.378;2022-09-12T12:38:53;27.51;48.08
65324;SHT31;51937;48.364;11.378;2022-09-12T12:43:52;27.84;47.29
65324;SHT31;51937;48.364;11.378;2022-09-12T12:46:21;27.95;47.22
65324;SHT31;51937;48.364;11.378;2022-09-12T12:51:26;28.20;46.80
65324;SHT31;51937;48.364;11.378;2022-09-12T12:53:53;28.39;46.56
65324;SHT31;51937;48.364;11.378;2022-09-12T12:56:26;28.53;46.34
65324;SHT31;51937;48.364;11.378;2022-09-12T12:58:58;28.70;46.20
65324;SHT31;51937;48.364;11.378;2022-09-12T13:01:24;28.83;45.97
65324;SHT31;51937;48.364;11.378;2022-09-12T13:04:02;28.95;45.64
65324;SHT31;51937;48.364;11.378;2022-09-12T13:06:38;29.02;45.57
65324;SHT31;51937;48.364;11.378;2022-09-12T13:09:07;29.08;45.42
65324;SHT31;51937;48.364;11.378;2022-09-12T13:11:37;29.19;45.29
65324;SHT31;51937;48.364;11.378;2022-09-12T13:14:05;29.29;45.09
65324;SHT31;51937;48.364;11.378;2022-09-12T13:16:37;29.37;45.06
65324;SHT31;51937;48.364;11.378;2022-09-12T13:19:11;29.42;44.84
65324;SHT31;51937;48.364;11.378;2022-09-12T13:21:37;29.55;44.73
65324;SHT31;51937;48.364;11.378;2022-09-12T13:24:13;29.57;44.64
65324;SHT31;51937;48.364;11.378;2022-09-12T13:26:43;29.73;44.32
65324;SHT31;51937;48.364;11.378;2022-09-12T13:29:22;29.78;44.07
65324;SHT31;51937;48.364;11.378;2022-09-12T13:32:07;29.77;43.92
65324;SHT31;51937;48.364;11.378;2022-09-12T13:34:36;29.77;43.59
65324;SHT31;51937;48.364;11.378;2022-09-12T13:42:48;29.69;43.36
65324;SHT31;51937;48.364;11.378;2022-09-12T13:45:24;29.67;43.34
65324;SHT31;51937;48.364;11.378;2022-09-12T13:47:56;29.69;43.13
65324;SHT31;51937;48.364;11.378;2022-09-12T13:50:27;29.67;42.89
65324;SHT31;51937;48.364;11.378;2022-09-12T13:52:55;29.66;42.92
65324;SHT31;51937;48.364;11.378;2022-09-12T13:55:38;29.67;42.93
65324;SHT31;51937;48.364;11.378;2022-09-12T13:58:19;29.78;42.73
65324;SHT31;51937;48.364;11.378;2022-09-12T14:00:45;29.87;42.44
65324;SHT31;51937;48.364;11.378;2022-09-12T14:03:24;29.94;42.17
65324;SHT31;51937;48.364;11.378;2022-09-12T14:06:08;30.17;42.22
65324;SHT31;51937;48.364;11.378;2022-09-12T14:08:38;30.37;41.81
65324;SHT31;51937;48.364;11.378;2022-09-12T14:11:11;30.62;41.62
65324;SHT31;51937;48.364;11.378;2022-09-12T14:13:40;30.84;41.54
65324;SHT31;51937;48.364;11.378;2022-09-12T14:16:08;31.02;41.43
65324;SHT31;51937;48.364;11.378;2022-09-12T14:18:37;31.26;41.05
65324;SHT31;51937;48.364;11.378;2022-09-12T14:21:33;31.55;40.89
65324;SHT31;51937;48.364;11.378;2022-09-12T14:24:00;31.76;40.23
65324;SHT31;51937;48.364;11.378;2022-09-12T14:26:27;31.94;40.08
65324;SHT31;51937;48.364;11.378;2022-09-12T14:28:56;32.15;39.86
65324;SHT31;51937;48.364;11.378;2022-09-12T14:31:31;32.31;39.40
65324;SHT31;51937;48.364;11.378;2022-09-12T14:36:44;32.45;39.18
65324;SHT31;51937;48.364;11.378;2022-09-12T14:39:32;32.42;39.24
65324;SHT31;51937;48.364;11.378;2022-09-12T14:42:04;32.51;38.94
65324;SHT31;51937;48.364;11.378;2022-09-12T14:44:31;32.51;38.88
65324;SHT31;51937;48.364;11.378;2022-09-12T14:47:09;32.45;38.45
65324;SHT31;51937;48.364;11.378;2022-09-12T14:49:36;32.41;38.63
65324;SHT31;51937;48.364;11.378;2022-09-12T14:52:26;32.38;38.70
65324;SHT31;51937;48.364;11.378;2022-09-12T14:57:35;32.48;37.97
65324;SHT31;51937;48.364;11.378;2022-09-12T15:02:38;32.65;37.83
65324;SHT31;51937;48.364;11.378;2022-09-12T15:07:44;32.89;37.37
65324;SHT31;51937;48.364;11.378;2022-09-12T15:10:36;33.02;37.25
65324;SHT31;51937;48.364;11.378;2022-09-12T15:15:30;33.37;36.75
65324;SHT31;51937;48.364;11.378;2022-09-12T15:17:56;33.52;36.67
65324;SHT31;51937;48.364;11.378;2022-09-12T15:20:21;33.66;36.32
65324;SHT31;51937;48.364;11.378;2022-09-12T15:22:48;33.82;36.02
65324;SHT31;51937;48.364;11.378;2022-09-12T15:25:13;33.86;35.76
65324;SHT31;51937;48.364;11.378;2022-09-12T15:27:38;33.82;35.77
65324;SHT31;51937;48.364;11.378;2022-09-12T15:30:08;33.82;35.57
65324;SHT31;51937;48.364;11.378;2022-09-12T15:32:34;33.89;35.61
65324;SHT31;51937;48.364;11.378;2022-09-12T15:35:00;33.88;35.57
65324;SHT31;51937;48.364;11.378;2022-09-12T15:37:27;33.97;35.45
65324;SHT31;51937;48.364;11.378;2022-09-12T15:39:53;34.03;35.45
65324;SHT31;51937;48.364;11.378;2022-09-12T15:42:24;34.12;35.00
65324;SHT31;51937;48.364;11.378;2022-09-12T15:44:52;34.25;34.87
65324;SHT31;51937;48.364;11.378;2022-09-12T15:47:18;34.25;34.61
65324;SHT31;51937;48.364;11.378;2022-09-12T15:49:44;34.17;34.59
65324;SHT31;51937;48.364;11.378;2022-09-12T15:52:14;34.16;34.63
65324;SHT31;51937;48.364;11.378;2022-09-12T15:54:40;34.20;34.53
65324;SHT31;51937;48.364;11.378;2022-09-12T15:57:06;34.17;34.42
65324;SHT31;51937;48.364;11.378;2022-09-12T15:59:31;34.16;34.37
65324;SHT31;51937;48.364;11.378;2022-09-12T16:01:57;34.13;34.40
65324;SHT31;51937;48.364;11.378;2022-09-12T16:04:24;34.07;34.22
65324;SHT31;51937;48.364;11.378;2022-09-12T16:06:52;34.04;34.17
65324;SHT31;51937;48.364;11.378;2022-09-12T16:09:19;34.00;34.08
65324;SHT31;51937;48.364;11.378;2022-09-12T16:11:45;33.92;34.14
65324;SHT31;51937;48.364;11.378;2022-09-12T16:14:13;33.86;34.04
65324;SHT31;51937;48.364;11.378;2022-09-12T16:16:39;33.79;34.23
65324;SHT31;51937;48.364;11.378;2022-09-12T16:19:07;33.75;34.14
65324;SHT31;51937;48.364;11.378;2022-09-12T16:21:35;33.69;34.01
65324;SHT31;51937;48.364;11.378;2022-09-12T16:24:01;33.59;33.97
65324;SHT31;51937;48.364;11.378;2022-09-12T16:26:26;33.50;34.17
65324;SHT31;51937;48.364;11.378;2022-09-12T16:28:56;33.41;34.11
65324;SHT31;51937;48.364;11.378;2022-09-12T16:31:21;33.35;34.28
65324;SHT31;51937;48.364;11.378;2022-09-12T16:33:47;33.25;34.43
65324;SHT31;51937;48.364;11.378;2022-09-12T16:36:16;33.17;34.44
65324;SHT31;51937;48.364;11.378;2022-09-12T16:38:51;33.04;34.56
65324;SHT31;51937;48.364;11.378;2022-09-12T16:41:17;32.83;35.57
65324;SHT31;51937;48.364;11.378;2022-09-12T16:43:43;32.83;35.03
65324;SHT31;51937;48.364;11.378;2022-09-12T16:46:16;32.66;34.95
65324;SHT31;51937;48.364;11.378;2022-09-12T16:48:44;32.49;35.01
65324;SHT31;51937;48.364;11.378;2022-09-12T16:51:10;32.28;35.09
65324;SHT31;51937;48.364;11.378;2022-09-12T16:53:36;31.94;35.24
65324;SHT31;51937;48.364;11.378;2022-09-12T16:56:03;31.56;35.51
65324;SHT31;51937;48.364;11.378;2022-09-12T16:58:33;31.15;35.82
65324;SHT31;51937;48.364;11.378;2022-09-12T17:01:09;30.73;36.16
65324;SHT31;51937;48.364;11.378;2022-09-12T17:03:35;30.35;36.50
65324;SHT31;51937;48.364;11.378;2022-09-12T17:06:14;29.92;36.70
65324;SHT31;51937;48.364;11.378;2022-09-12T17:08:46;29.47;37.04
65324;SHT31;51937;48.364;11.378;2022-09-12T17:11:15;29.11;37.36
65324;SHT31;51937;48.364;11.378;2022-09-12T17:13:41;28.75;37.69
65324;SHT31;51937;48.364;11.378;2022-09-12T17:16:10;28.36;37.94
65324;SHT31;51937;48.364;11.378;2022-09-12T17:18:37;28.05;38.20
65324;SHT31;51937;48.364;11.378;2022-09-12T17:21:02;27.76;38.57
65324;SHT31;51937;48.364;11.378;2022-09-12T17:23:28;27.42;38.81
65324;SHT31;51937;48.364;11.378;2022-09-12T17:25:54;27.13;39.01
65324;SHT31;51937;48.364;11.378;2022-09-12T17:28:19;26.83;39.28
65324;SHT31;51937;48.364;11.378;2022-09-12T17:30:45;26.53;39.53
65324;SHT31;51937;48.364;11.378;2022-09-12T17:33:11;26.29;39.79
65324;SHT31;51937;48.364;11.378;2022-09-12T17:35:37;26.02;40.00
65324;SHT31;51937;48.364;11.378;2022-09-12T17:38:04;25.80;40.25
65324;SHT31;51937;48.364;11.378;2022-09-12T17:40:29;25.56;40.55
65324;SHT31;51937;48.364;11.378;2022-09-12T17:42:55;25.31;40.83